sensor_id;sensor_type;location;lat;lon;timestamp;P1;durP1;ratioP1;P2;durP2;ratioP2
17398;SDS011;8817;48.170;8.592;2022-08-19T00:00:49;13.07;;;8.50;;
17398;SDS011;8817;48.170;8.592;2022-08-19T00:03:16;15.23;;;9.18;;
17398;SDS011;8817;48.170;8.592;2022-08-19T00:05:43;14.38;;;9.27;;
17398;SDS011;8817;48.170;8.592;2022-08-19T00:08:10;15.35;;;8.75;;
17398;SDS011;8817;48.170;8.592;2022-08-19T00:10:39;14.32;;;8.93;;
17398;SDS011;8817;48.170;8.592;2022-08-19T00:13:06;16.83;;;9.65;;
17398;SDS011;8817;48.170;8.592;2022-08-19T00:15:33;16.17;;;9.68;;
17398;SDS011;8817;48.170;8.592;2022-08-19T00:18:00;13.98;;;9.05;;
17398;SDS011;8817;48.170;8.592;2022-08-19T00:20:27;14.15;;;8.70;;
17398;SDS011;8817;48.170;8.592;2022-08-19T00:22:54;13.25;;;8.55;;
17398;SDS011;8817;48.170;8.592;2022-08-19T00:25:21;13.55;;;8.68;;
17398;SDS011;8817;48.170;8.592;2022-08-19T00:27:49;15.95;;;9.32;;
17398;SDS011;8817;48.170;8.592;2022-08-19T00:30:16;16.52;;;9.48;;
17398;SDS011;8817;48.170;8.592;2022-08-19T00:32:44;16.85;;;9.45;;
17398;SDS011;8817;48.170;8.592;2022-08-19T00:35:10;18.30;;;8.75;;
17398;SDS011;8817;48.170;8.592;2022-08-19T00:37:37;14.95;;;8.82;;
17398;SDS011;8817;48.170;8.592;2022-08-19T00:40:09;13.77;;;8.40;;
17398;SDS011;8817;48.170;8.592;2022-08-19T00:42:37;14.75;;;9.05;;
17398;SDS011;8817;48.170;8.592;2022-08-19T00:45:09;14.95;;;8.45;;
17398;SDS011;8817;48.170;8.592;2022-08-19T00:47:37;13.35;;;8.68;;
17398;SDS011;8817;48.170;8.592;2022-08-19T00:50:05;14.32;;;8.43;;
17398;SDS011;8817;48.170;8.592;2022-08-19T00:52:37;13.50;;;8.15;;
17398;SDS011;8817;48.170;8.592;2022-08-19T00:55:07;12.45;;;8.27;;
17398;SDS011;8817;48.170;8.592;2022-08-19T00:57:37;13.52;;;8.38;;
17398;SDS011;8817;48.170;8.592;2022-08-19T01:00:09;14.00;;;8.00;;
17398;SDS011;8817;48.170;8.592;2022-08-19T01:02:39;12.63;;;8.20;;
17398;SDS011;8817;48.170;8.592;2022-08-19T01:05:08;15.73;;;8.80;;
17398;SDS011;8817;48.170;8.592;2022-08-19T01:07:37;14.57;;;8.95;;
17398;SDS011;8817;48.170;8.592;2022-08-19T01:10:07;15.50;;;9.27;;
17398;SDS011;8817;48.170;8.592;2022-08-19T01:12:36;14.13;;;8.70;;
17398;SDS011;8817;48.170;8.592;2022-08-19T01:15:04;13.35;;;8.00;;
17398;SDS011;8817;48.170;8.592;2022-08-19T01:17:34;17.75;;;9.02;;
17398;SDS011;8817;48.170;8.592;2022-08-19T01:20:05;16.90;;;8.73;;
17398;SDS011;8817;48.170;8.592;2022-08-19T01:22:37;14.60;;;8.65;;
17398;SDS011;8817;48.170;8.592;2022-08-19T01:25:09;14.95;;;8.27;;
17398;SDS011;8817;48.170;8.592;2022-08-19T01:27:37;13.75;;;8.32;;
17398;SDS011;8817;48.170;8.592;2022-08-19T01:30:06;12.85;;;8.52;;
17398;SDS011;8817;48.170;8.592;2022-08-19T01:32:34;12.13;;;7.90;;
17398;SDS011;8817;48.170;8.592;2022-08-19T01:35:02;14.73;;;8.13;;
17398;SDS011;8817;48.170;8.592;2022-08-19T01:37:30;15.50;;;8.70;;
17398;SDS011;8817;48.170;8.592;2022-08-19T01:40:10;12.15;;;8.25;;
17398;SDS011;8817;48.170;8.592;2022-08-19T01:42:37;13.60;;;8.07;;
17398;SDS011;8817;48.170;8.592;2022-08-19T01:45:06;13.30;;;7.90;;
17398;SDS011;8817;48.170;8.592;2022-08-19T01:47:34;14.10;;;8.27;;
17398;SDS011;8817;48.170;8.592;2022-08-19T01:50:02;14.82;;;8.52;;
17398;SDS011;8817;48.170;8.592;2022-08-19T01:52:34;13.88;;;7.78;;
17398;SDS011;8817;48.170;8.592;2022-08-19T01:55:03;10.25;;;7.65;;
17398;SDS011;8817;48.170;8.592;2022-08-19T01:57:33;12.45;;;7.93;;
17398;SDS011;8817;48.170;8.592;2022-08-19T02:00:00;11.68;;;7.75;;
17398;SDS011;8817;48.170;8.592;2022-08-19T02:02:30;13.10;;;7.97;;
17398;SDS011;8817;48.170;8.592;2022-08-19T02:04:58;13.68;;;7.68;;
17398;SDS011;8817;48.170;8.592;2022-08-19T02:07:25;13.02;;;8.02;;
17398;SDS011;8817;48.170;8.592;2022-08-19T02:09:53;13.95;;;8.35;;
17398;SDS011;8817;48.170;8.592;2022-08-19T02:12:22;12.63;;;8.10;;
17398;SDS011;8817;48.170;8.592;2022-08-19T02:14:49;16.45;;;8.88;;
17398;SDS011;8817;48.170;8.592;2022-08-19T02:17:16;14.00;;;8.15;;
17398;SDS011;8817;48.170;8.592;2022-08-19T02:19:43;18.70;;;9.50;;
17398;SDS011;8817;48.170;8.592;2022-08-19T02:22:10;12.80;;;8.30;;
17398;SDS011;8817;48.170;8.592;2022-08-19T02:24:37;14.40;;;8.63;;
17398;SDS011;8817;48.170;8.592;2022-08-19T02:27:04;12.15;;;7.60;;
17398;SDS011;8817;48.170;8.592;2022-08-19T02:29:33;13.98;;;8.70;;
17398;SDS011;8817;48.170;8.592;2022-08-19T02:32:00;14.23;;;8.30;;
17398;SDS011;8817;48.170;8.592;2022-08-19T02:34:27;12.35;;;7.45;;
17398;SDS011;8817;48.170;8.592;2022-08-19T02:36:54;12.60;;;8.15;;
17398;SDS011;8817;48.170;8.592;2022-08-19T02:39:21;15.13;;;8.80;;
17398;SDS011;8817;48.170;8.592;2022-08-19T02:41:47;14.48;;;8.57;;
17398;SDS011;8817;48.170;8.592;2022-08-19T02:44:14;13.80;;;8.60;;
17398;SDS011;8817;48.170;8.592;2022-08-19T02:46:44;13.13;;;8.55;;
17398;SDS011;8817;48.170;8.592;2022-08-19T02:49:12;16.20;;;8.95;;
17398;SDS011;8817;48.170;8.592;2022-08-19T02:51:42;17.88;;;9.52;;
17398;SDS011;8817;48.170;8.592;2022-08-19T02:54:11;13.35;;;8.32;;
17398;SDS011;8817;48.170;8.592;2022-08-19T02:56:40;12.90;;;8.60;;
17398;SDS011;8817;48.170;8.592;2022-08-19T02:59:07;12.25;;;7.88;;
17398;SDS011;8817;48.170;8.592;2022-08-19T03:01:36;13.48;;;8.43;;
17398;SDS011;8817;48.170;8.592;2022-08-19T03:04:06;12.45;;;8.40;;
17398;SDS011;8817;48.170;8.592;2022-08-19T03:06:35;14.07;;;8.77;;
17398;SDS011;8817;48.170;8.592;2022-08-19T03:09:03;14.15;;;8.75;;
17398;SDS011;8817;48.170;8.592;2022-08-19T03:11:31;14.13;;;8.77;;
17398;SDS011;8817;48.170;8.592;2022-08-19T03:13:58;15.35;;;9.02;;
17398;SDS011;8817;48.170;8.592;2022-08-19T03:16:26;17.42;;;8.68;;
17398;SDS011;8817;48.170;8.592;2022-08-19T03:18:55;18.20;;;9.10;;
17398;SDS011;8817;48.170;8.592;2022-08-19T03:21:27;16.65;;;9.15;;
17398;SDS011;8817;48.170;8.592;2022-08-19T03:23:55;18.25;;;9.32;;
17398;SDS011;8817;48.170;8.592;2022-08-19T03:26:23;16.38;;;9.07;;
17398;SDS011;8817;48.170;8.592;2022-08-19T03:28:50;14.32;;;8.50;;
17398;SDS011;8817;48.170;8.592;2022-08-19T03:31:18;13.75;;;8.63;;
17398;SDS011;8817;48.170;8.592;2022-08-19T03:33:47;14.15;;;8.60;;
17398;SDS011;8817;48.170;8.592;2022-08-19T03:36:16;12.77;;;8.32;;
17398;SDS011;8817;48.170;8.592;2022-08-19T03:38:47;16.98;;;9.32;;
17398;SDS011;8817;48.170;8.592;2022-08-19T03:41:16;17.50;;;9.10;;
17398;SDS011;8817;48.170;8.592;2022-08-19T03:43:45;17.23;;;9.15;;
17398;SDS011;8817;48.170;8.592;2022-08-19T03:46:13;18.10;;;9.10;;
17398;SDS011;8817;48.170;8.592;2022-08-19T03:48:42;15.00;;;9.68;;
17398;SDS011;8817;48.170;8.592;2022-08-19T03:51:15;16.45;;;9.57;;
17398;SDS011;8817;48.170;8.592;2022-08-19T03:53:44;18.02;;;9.90;;
17398;SDS011;8817;48.170;8.592;2022-08-19T03:56:12;16.20;;;9.55;;
17398;SDS011;8817;48.170;8.592;2022-08-19T03:58:40;16.85;;;9.55;;
17398;SDS011;8817;48.170;8.592;2022-08-19T04:01:07;16.15;;;9.30;;
17398;SDS011;8817;48.170;8.592;2022-08-19T04:03:36;17.25;;;10.13;;
17398;SDS011;8817;48.170;8.592;2022-08-19T04:06:09;17.98;;;9.88;;
17398;SDS011;8817;48.170;8.592;2022-08-19T04:08:37;18.08;;;9.95;;
17398;SDS011;8817;48.170;8.592;2022-08-19T04:11:06;15.50;;;9.65;;
17398;SDS011;8817;48.170;8.592;2022-08-19T04:13:35;16.55;;;9.73;;
17398;SDS011;8817;48.170;8.592;2022-08-19T04:16:02;18.40;;;10.30;;
17398;SDS011;8817;48.170;8.592;2022-08-19T04:18:30;16.55;;;9.55;;
17398;SDS011;8817;48.170;8.592;2022-08-19T04:20:58;15.38;;;9.43;;
17398;SDS011;8817;48.170;8.592;2022-08-19T04:23:25;18.83;;;11.15;;
17398;SDS011;8817;48.170;8.592;2022-08-19T04:25:53;19.27;;;10.05;;
17398;SDS011;8817;48.170;8.592;2022-08-19T04:28:21;16.45;;;9.38;;
17398;SDS011;8817;48.170;8.592;2022-08-19T04:30:52;17.17;;;9.40;;
17398;SDS011;8817;48.170;8.592;2022-08-19T04:33:21;14.93;;;9.38;;
17398;SDS011;8817;48.170;8.592;2022-08-19T04:35:51;18.83;;;10.32;;
17398;SDS011;8817;48.170;8.592;2022-08-19T04:38:20;16.65;;;9.75;;
17398;SDS011;8817;48.170;8.592;2022-08-19T04:40:49;17.67;;;9.82;;
17398;SDS011;8817;48.170;8.592;2022-08-19T04:43:36;14.60;;;9.65;;
17398;SDS011;8817;48.170;8.592;2022-08-19T04:46:05;16.25;;;9.85;;
17398;SDS011;8817;48.170;8.592;2022-08-19T04:48:33;17.48;;;10.07;;
17398;SDS011;8817;48.170;8.592;2022-08-19T04:51:00;16.98;;;10.25;;
17398;SDS011;8817;48.170;8.592;2022-08-19T04:53:31;17.33;;;9.80;;
17398;SDS011;8817;48.170;8.592;2022-08-19T04:55:59;15.05;;;9.07;;
17398;SDS011;8817;48.170;8.592;2022-08-19T04:58:32;18.50;;;10.60;;
17398;SDS011;8817;48.170;8.592;2022-08-19T05:00:59;17.63;;;10.35;;
17398;SDS011;8817;48.170;8.592;2022-08-19T05:03:28;18.70;;;10.57;;
17398;SDS011;8817;48.170;8.592;2022-08-19T05:05:58;17.42;;;9.98;;
17398;SDS011;8817;48.170;8.592;2022-08-19T05:08:29;16.35;;;9.70;;
17398;SDS011;8817;48.170;8.592;2022-08-19T05:10:57;16.63;;;10.00;;
17398;SDS011;8817;48.170;8.592;2022-08-19T05:13:24;17.80;;;10.00;;
17398;SDS011;8817;48.170;8.592;2022-08-19T05:15:55;14.07;;;9.60;;
17398;SDS011;8817;48.170;8.592;2022-08-19T05:18:23;18.00;;;10.00;;
17398;SDS011;8817;48.170;8.592;2022-08-19T05:21:10;18.48;;;10.40;;
17398;SDS011;8817;48.170;8.592;2022-08-19T05:24:00;17.48;;;9.85;;
17398;SDS011;8817;48.170;8.592;2022-08-19T05:26:27;15.55;;;9.98;;
17398;SDS011;8817;48.170;8.592;2022-08-19T05:28:54;19.77;;;10.27;;
17398;SDS011;8817;48.170;8.592;2022-08-19T05:31:21;14.25;;;9.63;;
17398;SDS011;8817;48.170;8.592;2022-08-19T05:33:48;14.82;;;9.15;;
17398;SDS011;8817;48.170;8.592;2022-08-19T05:36:17;16.48;;;10.23;;
17398;SDS011;8817;48.170;8.592;2022-08-19T05:38:45;18.58;;;10.65;;
17398;SDS011;8817;48.170;8.592;2022-08-19T05:41:12;16.30;;;9.77;;
17398;SDS011;8817;48.170;8.592;2022-08-19T05:43:41;15.63;;;9.18;;
17398;SDS011;8817;48.170;8.592;2022-08-19T05:46:08;17.15;;;9.82;;
17398;SDS011;8817;48.170;8.592;2022-08-19T05:48:45;16.13;;;9.75;;
17398;SDS011;8817;48.170;8.592;2022-08-19T05:51:13;18.48;;;10.07;;
17398;SDS011;8817;48.170;8.592;2022-08-19T05:53:43;14.40;;;9.52;;
17398;SDS011;8817;48.170;8.592;2022-08-19T05:56:11;15.35;;;9.15;;
17398;SDS011;8817;48.170;8.592;2022-08-19T05:58:41;17.67;;;9.77;;
17398;SDS011;8817;48.170;8.592;2022-08-19T06:01:11;15.75;;;10.07;;
17398;SDS011;8817;48.170;8.592;2022-08-19T06:03:39;18.33;;;10.13;;
17398;SDS011;8817;48.170;8.592;2022-08-19T06:06:06;17.55;;;10.15;;
17398;SDS011;8817;48.170;8.592;2022-08-19T06:08:36;14.98;;;9.88;;
17398;SDS011;8817;48.170;8.592;2022-08-19T06:11:15;20.25;;;10.15;;
17398;SDS011;8817;48.170;8.592;2022-08-19T06:13:45;15.73;;;8.90;;
17398;SDS011;8817;48.170;8.592;2022-08-19T06:16:16;15.13;;;10.05;;
17398;SDS011;8817;48.170;8.592;2022-08-19T06:18:47;16.38;;;9.45;;
17398;SDS011;8817;48.170;8.592;2022-08-19T06:21:16;16.33;;;9.35;;
17398;SDS011;8817;48.170;8.592;2022-08-19T06:23:44;19.73;;;10.13;;
17398;SDS011;8817;48.170;8.592;2022-08-19T06:26:12;19.30;;;10.88;;
17398;SDS011;8817;48.170;8.592;2022-08-19T06:28:41;16.42;;;9.90;;
17398;SDS011;8817;48.170;8.592;2022-08-19T06:31:11;17.60;;;10.52;;
17398;SDS011;8817;48.170;8.592;2022-08-19T06:33:39;20.23;;;11.32;;
17398;SDS011;8817;48.170;8.592;2022-08-19T06:36:07;19.35;;;10.70;;
17398;SDS011;8817;48.170;8.592;2022-08-19T06:38:41;20.40;;;11.50;;
17398;SDS011;8817;48.170;8.592;2022-08-19T06:41:08;16.80;;;10.38;;
17398;SDS011;8817;48.170;8.592;2022-08-19T06:43:37;18.77;;;11.23;;
17398;SDS011;8817;48.170;8.592;2022-08-19T06:46:09;21.08;;;11.32;;
17398;SDS011;8817;48.170;8.592;2022-08-19T06:48:37;17.40;;;9.88;;
17398;SDS011;8817;48.170;8.592;2022-08-19T06:51:05;17.52;;;10.32;;
17398;SDS011;8817;48.170;8.592;2022-08-19T06:53:32;22.90;;;11.23;;
17398;SDS011;8817;48.170;8.592;2022-08-19T06:55:59;21.52;;;10.98;;
17398;SDS011;8817;48.170;8.592;2022-08-19T06:58:27;19.35;;;10.60;;
17398;SDS011;8817;48.170;8.592;2022-08-19T07:00:58;19.13;;;11.07;;
17398;SDS011;8817;48.170;8.592;2022-08-19T07:03:28;19.05;;;10.85;;
17398;SDS011;8817;48.170;8.592;2022-08-19T07:05:56;21.77;;;10.98;;
17398;SDS011;8817;48.170;8.592;2022-08-19T07:08:24;18.20;;;10.57;;
17398;SDS011;8817;48.170;8.592;2022-08-19T07:10:51;20.60;;;11.18;;
17398;SDS011;8817;48.170;8.592;2022-08-19T07:13:18;20.42;;;10.90;;
17398;SDS011;8817;48.170;8.592;2022-08-19T07:15:46;22.05;;;11.07;;
17398;SDS011;8817;48.170;8.592;2022-08-19T07:18:16;23.08;;;11.52;;
17398;SDS011;8817;48.170;8.592;2022-08-19T07:20:45;18.30;;;10.52;;
17398;SDS011;8817;48.170;8.592;2022-08-19T07:23:12;19.92;;;11.20;;
17398;SDS011;8817;48.170;8.592;2022-08-19T07:25:40;18.52;;;10.45;;
17398;SDS011;8817;48.170;8.592;2022-08-19T07:28:08;24.88;;;11.50;;
17398;SDS011;8817;48.170;8.592;2022-08-19T07:30:38;23.98;;;11.30;;
17398;SDS011;8817;48.170;8.592;2022-08-19T07:33:05;22.30;;;11.93;;
17398;SDS011;8817;48.170;8.592;2022-08-19T07:35:34;25.30;;;11.50;;
17398;SDS011;8817;48.170;8.592;2022-08-19T07:38:01;22.27;;;10.55;;
17398;SDS011;8817;48.170;8.592;2022-08-19T07:40:29;21.30;;;11.48;;
17398;SDS011;8817;48.170;8.592;2022-08-19T07:42:57;20.85;;;11.40;;
17398;SDS011;8817;48.170;8.592;2022-08-19T07:45:24;22.27;;;11.00;;
17398;SDS011;8817;48.170;8.592;2022-08-19T07:47:52;18.33;;;10.80;;
17398;SDS011;8817;48.170;8.592;2022-08-19T07:50:19;19.92;;;10.90;;
17398;SDS011;8817;48.170;8.592;2022-08-19T07:52:48;18.70;;;10.23;;
17398;SDS011;8817;48.170;8.592;2022-08-19T07:55:17;21.08;;;11.07;;
17398;SDS011;8817;48.170;8.592;2022-08-19T07:57:46;19.35;;;11.15;;
17398;SDS011;8817;48.170;8.592;2022-08-19T08:00:13;24.35;;;11.40;;
17398;SDS011;8817;48.170;8.592;2022-08-19T08:02:41;20.58;;;11.13;;
17398;SDS011;8817;48.170;8.592;2022-08-19T08:05:08;20.60;;;11.23;;
17398;SDS011;8817;48.170;8.592;2022-08-19T08:07:55;19.65;;;10.70;;
17398;SDS011;8817;48.170;8.592;2022-08-19T08:10:39;21.58;;;10.80;;
17398;SDS011;8817;48.170;8.592;2022-08-19T08:13:07;22.13;;;11.57;;
17398;SDS011;8817;48.170;8.592;2022-08-19T08:15:34;17.67;;;10.05;;
17398;SDS011;8817;48.170;8.592;2022-08-19T08:18:03;20.95;;;10.80;;
17398;SDS011;8817;48.170;8.592;2022-08-19T08:20:31;20.27;;;11.73;;
17398;SDS011;8817;48.170;8.592;2022-08-19T08:22:59;17.85;;;10.55;;
17398;SDS011;8817;48.170;8.592;2022-08-19T08:25:43;17.13;;;10.32;;
17398;SDS011;8817;48.170;8.592;2022-08-19T08:28:10;23.27;;;11.70;;
17398;SDS011;8817;48.170;8.592;2022-08-19T08:30:37;20.63;;;11.20;;
17398;SDS011;8817;48.170;8.592;2022-08-19T08:33:07;20.55;;;11.02;;
17398;SDS011;8817;48.170;8.592;2022-08-19T08:35:34;19.35;;;10.85;;
17398;SDS011;8817;48.170;8.592;2022-08-19T08:38:03;18.92;;;10.77;;
17398;SDS011;8817;48.170;8.592;2022-08-19T08:40:39;18.40;;;10.70;;
17398;SDS011;8817;48.170;8.592;2022-08-19T08:43:26;19.25;;;10.70;;
17398;SDS011;8817;48.170;8.592;2022-08-19T08:45:56;16.60;;;10.05;;
17398;SDS011;8817;48.170;8.592;2022-08-19T08:48:30;18.45;;;10.98;;
17398;SDS011;8817;48.170;8.592;2022-08-19T08:51:04;20.92;;;10.98;;
17398;SDS011;8817;48.170;8.592;2022-08-19T08:53:36;19.67;;;10.40;;
17398;SDS011;8817;48.170;8.592;2022-08-19T08:56:06;21.02;;;10.82;;
17398;SDS011;8817;48.170;8.592;2022-08-19T08:58:39;16.38;;;10.15;;
17398;SDS011;8817;48.170;8.592;2022-08-19T09:01:15;18.95;;;10.43;;
17398;SDS011;8817;48.170;8.592;2022-08-19T09:03:42;19.58;;;10.40;;
17398;SDS011;8817;48.170;8.592;2022-08-19T09:06:14;20.80;;;11.63;;
17398;SDS011;8817;48.170;8.592;2022-08-19T09:08:51;21.88;;;11.23;;
17398;SDS011;8817;48.170;8.592;2022-08-19T09:11:33;20.88;;;10.82;;
17398;SDS011;8817;48.170;8.592;2022-08-19T09:14:16;19.80;;;10.40;;
17398;SDS011;8817;48.170;8.592;2022-08-19T09:16:50;17.85;;;10.48;;
17398;SDS011;8817;48.170;8.592;2022-08-19T09:19:17;20.75;;;11.32;;
17398;SDS011;8817;48.170;8.592;2022-08-19T09:21:44;22.70;;;12.13;;
17398;SDS011;8817;48.170;8.592;2022-08-19T09:24:13;17.83;;;11.10;;
17398;SDS011;8817;48.170;8.592;2022-08-19T09:26:40;23.33;;;11.65;;
17398;SDS011;8817;48.170;8.592;2022-08-19T09:29:08;20.02;;;10.57;;
17398;SDS011;8817;48.170;8.592;2022-08-19T09:31:36;22.38;;;10.98;;
17398;SDS011;8817;48.170;8.592;2022-08-19T09:34:04;23.63;;;12.70;;
17398;SDS011;8817;48.170;8.592;2022-08-19T09:36:31;21.90;;;12.10;;
17398;SDS011;8817;48.170;8.592;2022-08-19T09:39:01;23.23;;;11.82;;
17398;SDS011;8817;48.170;8.592;2022-08-19T09:41:30;20.67;;;11.55;;
17398;SDS011;8817;48.170;8.592;2022-08-19T09:43:57;19.80;;;10.70;;
17398;SDS011;8817;48.170;8.592;2022-08-19T09:46:25;21.70;;;11.95;;
17398;SDS011;8817;48.170;8.592;2022-08-19T09:48:56;21.67;;;11.43;;
17398;SDS011;8817;48.170;8.592;2022-08-19T09:51:25;20.90;;;11.70;;
17398;SDS011;8817;48.170;8.592;2022-08-19T09:53:53;20.70;;;11.50;;
17398;SDS011;8817;48.170;8.592;2022-08-19T09:56:22;19.75;;;11.32;;
17398;SDS011;8817;48.170;8.592;2022-08-19T09:58:52;21.25;;;11.48;;
17398;SDS011;8817;48.170;8.592;2022-08-19T10:01:19;23.08;;;11.50;;
17398;SDS011;8817;48.170;8.592;2022-08-19T10:03:48;21.98;;;11.55;;
17398;SDS011;8817;48.170;8.592;2022-08-19T10:06:17;21.58;;;11.13;;
17398;SDS011;8817;48.170;8.592;2022-08-19T10:08:45;22.27;;;11.73;;
17398;SDS011;8817;48.170;8.592;2022-08-19T10:11:13;19.60;;;11.10;;
17398;SDS011;8817;48.170;8.592;2022-08-19T10:13:42;20.02;;;11.05;;
17398;SDS011;8817;48.170;8.592;2022-08-19T10:16:12;20.45;;;11.40;;
17398;SDS011;8817;48.170;8.592;2022-08-19T10:18:41;19.38;;;10.82;;
17398;SDS011;8817;48.170;8.592;2022-08-19T10:21:10;18.40;;;10.45;;
17398;SDS011;8817;48.170;8.592;2022-08-19T10:23:39;19.50;;;11.35;;
17398;SDS011;8817;48.170;8.592;2022-08-19T10:26:08;18.92;;;10.73;;
17398;SDS011;8817;48.170;8.592;2022-08-19T10:28:36;19.75;;;11.38;;
17398;SDS011;8817;48.170;8.592;2022-08-19T10:31:04;16.77;;;10.82;;
17398;SDS011;8817;48.170;8.592;2022-08-19T10:33:33;20.30;;;11.45;;
17398;SDS011;8817;48.170;8.592;2022-08-19T10:36:01;18.30;;;10.50;;
17398;SDS011;8817;48.170;8.592;2022-08-19T10:38:30;19.42;;;11.07;;
17398;SDS011;8817;48.170;8.592;2022-08-19T10:40:57;19.50;;;10.95;;
17398;SDS011;8817;48.170;8.592;2022-08-19T10:43:24;15.80;;;10.80;;
17398;SDS011;8817;48.170;8.592;2022-08-19T10:45:52;19.05;;;11.25;;
17398;SDS011;8817;48.170;8.592;2022-08-19T10:48:21;21.48;;;11.27;;
17398;SDS011;8817;48.170;8.592;2022-08-19T10:50:49;16.02;;;10.57;;
17398;SDS011;8817;48.170;8.592;2022-08-19T10:53:34;20.02;;;11.02;;
17398;SDS011;8817;48.170;8.592;2022-08-19T10:56:01;20.48;;;11.40;;
17398;SDS011;8817;48.170;8.592;2022-08-19T10:58:46;18.90;;;11.10;;
17398;SDS011;8817;48.170;8.592;2022-08-19T11:01:13;18.40;;;10.57;;
17398;SDS011;8817;48.170;8.592;2022-08-19T11:03:40;25.40;;;11.07;;
17398;SDS011;8817;48.170;8.592;2022-08-19T11:06:09;18.30;;;11.13;;
17398;SDS011;8817;48.170;8.592;2022-08-19T11:08:36;18.42;;;10.70;;
17398;SDS011;8817;48.170;8.592;2022-08-19T11:11:04;17.30;;;10.05;;
17398;SDS011;8817;48.170;8.592;2022-08-19T11:13:34;17.15;;;10.88;;
17398;SDS011;8817;48.170;8.592;2022-08-19T11:16:03;19.63;;;10.68;;
17398;SDS011;8817;48.170;8.592;2022-08-19T11:18:34;18.75;;;11.52;;
17398;SDS011;8817;48.170;8.592;2022-08-19T11:21:07;15.15;;;10.13;;
17398;SDS011;8817;48.170;8.592;2022-08-19T11:23:37;21.15;;;11.20;;
17398;SDS011;8817;48.170;8.592;2022-08-19T11:26:04;15.18;;;9.48;;
17398;SDS011;8817;48.170;8.592;2022-08-19T11:28:32;18.60;;;10.90;;
17398;SDS011;8817;48.170;8.592;2022-08-19T11:30:59;17.38;;;10.45;;
17398;SDS011;8817;48.170;8.592;2022-08-19T11:33:28;13.38;;;9.40;;
17398;SDS011;8817;48.170;8.592;2022-08-19T11:35:56;16.00;;;10.13;;
17398;SDS011;8817;48.170;8.592;2022-08-19T11:38:26;15.32;;;10.80;;
17398;SDS011;8817;48.170;8.592;2022-08-19T11:40:54;16.85;;;10.95;;
17398;SDS011;8817;48.170;8.592;2022-08-19T11:43:21;15.57;;;10.70;;
17398;SDS011;8817;48.170;8.592;2022-08-19T11:45:49;19.83;;;10.95;;
17398;SDS011;8817;48.170;8.592;2022-08-19T11:48:16;18.02;;;11.45;;
17398;SDS011;8817;48.170;8.592;2022-08-19T11:50:47;17.67;;;11.45;;
17398;SDS011;8817;48.170;8.592;2022-08-19T11:53:14;16.40;;;10.95;;
17398;SDS011;8817;48.170;8.592;2022-08-19T11:55:45;16.90;;;11.57;;
17398;SDS011;8817;48.170;8.592;2022-08-19T11:58:12;15.27;;;10.55;;
17398;SDS011;8817;48.170;8.592;2022-08-19T12:00:40;19.27;;;11.55;;
17398;SDS011;8817;48.170;8.592;2022-08-19T12:03:10;17.48;;;11.50;;
17398;SDS011;8817;48.170;8.592;2022-08-19T12:05:38;17.42;;;11.55;;
17398;SDS011;8817;48.170;8.592;2022-08-19T12:08:06;17.02;;;11.82;;
17398;SDS011;8817;48.170;8.592;2022-08-19T12:10:33;20.10;;;11.02;;
17398;SDS011;8817;48.170;8.592;2022-08-19T12:13:03;23.48;;;12.02;;
17398;SDS011;8817;48.170;8.592;2022-08-19T12:15:30;18.27;;;11.60;;
17398;SDS011;8817;48.170;8.592;2022-08-19T12:18:02;18.77;;;11.45;;
17398;SDS011;8817;48.170;8.592;2022-08-19T12:20:29;18.90;;;11.63;;
17398;SDS011;8817;48.170;8.592;2022-08-19T12:22:56;18.60;;;12.27;;
17398;SDS011;8817;48.170;8.592;2022-08-19T12:25:23;18.13;;;11.60;;
17398;SDS011;8817;48.170;8.592;2022-08-19T12:27:50;19.98;;;11.80;;
17398;SDS011;8817;48.170;8.592;2022-08-19T12:30:18;19.45;;;11.70;;
17398;SDS011;8817;48.170;8.592;2022-08-19T12:32:45;17.63;;;11.38;;
17398;SDS011;8817;48.170;8.592;2022-08-19T12:35:12;19.80;;;12.60;;
17398;SDS011;8817;48.170;8.592;2022-08-19T12:37:40;21.20;;;12.82;;
17398;SDS011;8817;48.170;8.592;2022-08-19T12:40:09;19.80;;;12.27;;
17398;SDS011;8817;48.170;8.592;2022-08-19T12:42:38;18.80;;;12.10;;
17398;SDS011;8817;48.170;8.592;2022-08-19T12:45:07;20.77;;;11.95;;
17398;SDS011;8817;48.170;8.592;2022-08-19T12:47:37;21.80;;;11.70;;
17398;SDS011;8817;48.170;8.592;2022-08-19T12:50:05;20.75;;;12.60;;
17398;SDS011;8817;48.170;8.592;2022-08-19T12:52:33;23.50;;;12.80;;
17398;SDS011;8817;48.170;8.592;2022-08-19T12:55:03;20.20;;;11.95;;
17398;SDS011;8817;48.170;8.592;2022-08-19T12:57:31;21.67;;;13.15;;
17398;SDS011;8817;48.170;8.592;2022-08-19T13:00:02;23.40;;;13.00;;
17398;SDS011;8817;48.170;8.592;2022-08-19T13:02:33;18.95;;;11.57;;
17398;SDS011;8817;48.170;8.592;2022-08-19T13:05:02;23.30;;;13.13;;
17398;SDS011;8817;48.170;8.592;2022-08-19T13:07:31;20.63;;;12.88;;
17398;SDS011;8817;48.170;8.592;2022-08-19T13:09:58;21.63;;;13.38;;
17398;SDS011;8817;48.170;8.592;2022-08-19T13:12:25;22.90;;;12.73;;
17398;SDS011;8817;48.170;8.592;2022-08-19T13:14:52;20.08;;;12.63;;
17398;SDS011;8817;48.170;8.592;2022-08-19T13:17:20;20.20;;;12.48;;
17398;SDS011;8817;48.170;8.592;2022-08-19T13:19:47;17.83;;;11.57;;
17398;SDS011;8817;48.170;8.592;2022-08-19T13:22:15;19.17;;;12.48;;
17398;SDS011;8817;48.170;8.592;2022-08-19T13:24:42;20.83;;;12.40;;
17398;SDS011;8817;48.170;8.592;2022-08-19T13:27:09;19.67;;;12.55;;
17398;SDS011;8817;48.170;8.592;2022-08-19T13:29:36;20.95;;;12.63;;
17398;SDS011;8817;48.170;8.592;2022-08-19T13:32:23;19.42;;;12.20;;
17398;SDS011;8817;48.170;8.592;2022-08-19T13:35:07;19.15;;;11.55;;
17398;SDS011;8817;48.170;8.592;2022-08-19T13:37:36;17.65;;;11.55;;
17398;SDS011;8817;48.170;8.592;2022-08-19T13:40:10;16.77;;;11.70;;
17398;SDS011;8817;48.170;8.592;2022-08-19T13:42:42;17.17;;;11.25;;
17398;SDS011;8817;48.170;8.592;2022-08-19T13:45:12;16.80;;;10.98;;
17398;SDS011;8817;48.170;8.592;2022-08-19T13:47:41;16.52;;;11.20;;
17398;SDS011;8817;48.170;8.592;2022-08-19T13:50:09;17.65;;;10.68;;
17398;SDS011;8817;48.170;8.592;2022-08-19T13:52:38;14.35;;;10.07;;
17398;SDS011;8817;48.170;8.592;2022-08-19T13:55:06;14.52;;;9.90;;
17398;SDS011;8817;48.170;8.592;2022-08-19T13:57:35;12.80;;;9.68;;
17398;SDS011;8817;48.170;8.592;2022-08-19T14:00:04;13.77;;;9.82;;
17398;SDS011;8817;48.170;8.592;2022-08-19T14:02:33;15.93;;;10.05;;
17398;SDS011;8817;48.170;8.592;2022-08-19T14:05:00;13.05;;;9.95;;
17398;SDS011;8817;48.170;8.592;2022-08-19T14:07:27;15.13;;;9.68;;
17398;SDS011;8817;48.170;8.592;2022-08-19T14:09:55;12.02;;;9.23;;
17398;SDS011;8817;48.170;8.592;2022-08-19T14:12:22;13.13;;;9.82;;
17398;SDS011;8817;48.170;8.592;2022-08-19T14:14:50;16.80;;;10.20;;
17398;SDS011;8817;48.170;8.592;2022-08-19T14:17:16;12.60;;;9.77;;
17398;SDS011;8817;48.170;8.592;2022-08-19T14:19:44;13.27;;;9.55;;
17398;SDS011;8817;48.170;8.592;2022-08-19T14:22:10;13.10;;;9.77;;
17398;SDS011;8817;48.170;8.592;2022-08-19T14:24:37;12.13;;;9.90;;
17398;SDS011;8817;48.170;8.592;2022-08-19T14:27:06;12.18;;;9.27;;
17398;SDS011;8817;48.170;8.592;2022-08-19T14:29:34;12.77;;;8.77;;
17398;SDS011;8817;48.170;8.592;2022-08-19T14:32:01;11.23;;;9.32;;
17398;SDS011;8817;48.170;8.592;2022-08-19T14:34:28;10.52;;;8.52;;
17398;SDS011;8817;48.170;8.592;2022-08-19T14:36:56;13.60;;;9.40;;
17398;SDS011;8817;48.170;8.592;2022-08-19T14:39:23;9.93;;;8.32;;
17398;SDS011;8817;48.170;8.592;2022-08-19T14:41:50;12.15;;;9.30;;
17398;SDS011;8817;48.170;8.592;2022-08-19T14:44:20;13.00;;;9.25;;
17398;SDS011;8817;48.170;8.592;2022-08-19T14:46:47;11.32;;;9.27;;
17398;SDS011;8817;48.170;8.592;2022-08-19T14:49:14;12.18;;;9.43;;
17398;SDS011;8817;48.170;8.592;2022-08-19T14:51:41;12.32;;;9.52;;